Time;durP1;ratioP1;P1;durP2;ratioP2;P2;SDS_P1;SDS_P2;PMS_P1;PMS_P2;Temp;Humidity;BMP_temperature;BMP_pressure;BME280_temperature;BME280_humidity;BME280_pressure;Samples;Min_cycle;Max_cycle;Signal;HPM_P1;HPM_P2
2021/10/26 00:00:17;;;;;;;16.57;3.17;;;12.70;99.90;;;;;;5011306;28;20238;-88
2021/10/26 00:02:44;;;;;;;9.30;2.83;;;12.70;99.90;;;;;;5012517;28;20195;-87
2021/10/26 00:05:12;;;;;;;12.40;2.87;;;12.70;99.90;;;;;;5012039;28;20273;-88
2021/10/26 00:07:40;;;;;;;18.43;3.80;;;12.80;99.90;;;;;;5010863;28;20199;-88
2021/10/26 00:10:08;;;;;;;11.40;3.90;;;12.80;99.90;;;;;;4992793;28;20547;-88
2021/10/26 00:12:35;;;;;;;9.00;3.43;;;12.90;99.90;;;;;;4991693;28;20199;-88
2021/10/26 00:15:02;;;;;;;10.40;3.13;;;12.80;99.90;;;;;;4993054;28;20207;-88
2021/10/26 00:17:30;;;;;;;12.47;3.23;;;12.90;99.90;;;;;;4994774;28;20207;-88
2021/10/26 00:19:57;;;;;;;15.03;3.47;;;12.90;99.90;;;;;;5013022;28;20221;-89
2021/10/26 00:22:24;;;;;;;14.53;3.23;;;12.90;99.90;;;;;;5016755;28;20227;-86
2021/10/26 00:24:52;;;;;;;10.50;3.33;;;12.80;99.90;;;;;;5004484;28;20207;-87
2021/10/26 00:27:19;;;;;;;13.73;3.33;;;12.90;99.90;;;;;;4997909;28;20207;-88
2021/10/26 00:29:46;;;;;;;10.37;3.23;;;12.90;99.90;;;;;;5004426;28;20338;-88
2021/10/26 00:32:13;;;;;;;9.13;3.13;;;13.00;99.90;;;;;;5017918;28;20207;-86
2021/10/26 00:34:39;;;;;;;10.67;3.13;;;13.00;99.90;;;;;;5018450;28;20594;-87
2021/10/26 00:37:06;;;;;;;11.23;3.83;;;13.00;99.90;;;;;;5018251;28;20614;-89
2021/10/26 00:39:33;;;;;;;10.60;2.80;;;13.00;99.90;;;;;;5018328;28;20596;-88
2021/10/26 00:42:04;;;;;;;11.27;3.10;;;13.00;99.90;;;;;;5019403;28;20214;-87
2021/10/26 00:44:32;;;;;;;6.83;2.80;;;13.00;99.90;;;;;;5027449;28;20217;-87
2021/10/26 00:46:58;;;;;;;8.00;3.03;;;13.00;99.90;;;;;;5026811;28;20195;-86
2021/10/26 00:49:25;;;;;;;9.47;2.60;;;12.90;99.90;;;;;;5033846;28;20207;-88
2021/10/26 00:51:55;;;;;;;12.90;2.63;;;13.00;99.90;;;;;;5030967;28;20219;-86
2021/10/26 00:54:24;;;;;;;9.60;3.53;;;13.00;99.90;;;;;;5017204;28;20211;-87
2021/10/26 00:56:51;;;;;;;11.93;2.77;;;13.00;99.90;;;;;;5008627;28;20239;-87
2021/10/26 00:59:19;;;;;;;9.30;2.77;;;12.90;99.90;;;;;;4997349;28;20250;-87
2021/10/26 01:01:47;;;;;;;6.67;2.57;;;12.90;99.90;;;;;;4995158;28;20311;-87
2021/10/26 01:04:14;;;;;;;6.63;2.70;;;12.90;99.90;;;;;;5012507;28;20234;-88
2021/10/26 01:06:41;;;;;;;4.87;2.00;;;12.90;99.90;;;;;;5015025;28;20247;-89
2021/10/26 01:09:08;;;;;;;7.70;1.83;;;12.90;99.90;;;;;;5015425;28;20192;-89
2021/10/26 01:11:35;;;;;;;7.60;1.90;;;12.90;99.90;;;;;;4996217;28;20238;-89
2021/10/26 01:14:03;;;;;;;8.90;2.20;;;12.80;99.90;;;;;;4994790;28;20230;-89
2021/10/26 01:16:31;;;;;;;8.97;2.03;;;12.80;99.90;;;;;;4998721;28;20195;-87
2021/10/26 01:18:58;;;;;;;7.40;1.93;;;12.70;99.90;;;;;;5015140;28;20210;-88
2021/10/26 01:21:27;;;;;;;7.13;1.60;;;12.70;99.90;;;;;;5014633;28;20203;-88
2021/10/26 01:23:53;;;;;;;6.70;1.90;;;12.70;99.90;;;;;;5015112;28;20199;-89
2021/10/26 01:26:20;;;;;;;13.60;2.00;;;12.70;99.90;;;;;;4998958;28;20220;-87
2021/10/26 01:28:47;;;;;;;6.30;1.80;;;12.70;99.90;;;;;;4994696;28;20212;-86
2021/10/26 01:31:14;;;;;;;5.40;1.70;;;12.70;99.90;;;;;;4994805;28;20528;-86
2021/10/26 01:33:41;;;;;;;7.77;1.80;;;12.60;99.90;;;;;;4994298;28;20630;-87
2021/10/26 01:36:08;;;;;;;4.03;1.50;;;12.50;99.90;;;;;;4995359;28;20211;-88
2021/10/26 01:38:37;;;;;;;5.50;1.77;;;12.50;99.90;;;;;;4995050;28;20211;-88
2021/10/26 01:41:04;;;;;;;4.37;1.70;;;12.40;99.90;;;;;;4993640;28;20703;-88
2021/10/26 01:43:31;;;;;;;8.10;1.80;;;12.30;99.90;;;;;;4995003;28;20573;-88
2021/10/26 01:45:58;;;;;;;7.23;1.60;;;12.30;99.90;;;;;;4998194;28;20215;-87
2021/10/26 01:48:26;;;;;;;6.80;1.80;;;12.20;99.90;;;;;;4999005;28;20215;-86
2021/10/26 01:50:53;;;;;;;6.50;1.80;;;12.10;99.90;;;;;;4993917;28;20278;-87
2021/10/26 01:53:20;;;;;;;7.80;1.93;;;12.10;99.90;;;;;;5011270;28;20283;-86
2021/10/26 01:55:48;;;;;;;4.23;1.63;;;12.10;99.90;;;;;;5012900;28;20206;-87
2021/10/26 01:58:16;;;;;;;7.17;2.30;;;12.10;99.90;;;;;;5012239;28;20207;-86
2021/10/26 02:00:43;;;;;;;3.17;1.50;;;12.10;99.90;;;;;;5012912;28;20219;-86
2021/10/26 02:03:10;;;;;;;4.67;1.93;;;12.00;99.90;;;;;;4993735;28;20223;-87
2021/10/26 02:05:38;;;;;;;4.07;1.50;;;11.90;99.90;;;;;;4992299;28;20244;-86
2021/10/26 02:08:05;;;;;;;9.03;2.30;;;11.90;99.90;;;;;;4993640;28;20218;-86
2021/10/26 02:10:32;;;;;;;10.60;1.93;;;11.90;99.90;;;;;;4992872;28;20230;-84
2021/10/26 02:13:00;;;;;;;5.03;2.13;;;12.00;99.90;;;;;;4993050;28;20278;-84
2021/10/26 02:15:27;;;;;;;5.20;2.20;;;12.00;99.90;;;;;;4991789;28;20208;-85
2021/10/26 02:17:54;;;;;;;7.87;2.33;;;12.00;99.90;;;;;;4992341;28;20212;-87
2021/10/26 02:20:20;;;;;;;11.27;2.43;;;12.00;99.90;;;;;;4992221;28;20236;-85
2021/10/26 02:22:47;;;;;;;7.53;3.17;;;12.10;99.90;;;;;;4992847;28;20208;-86
2021/10/26 02:25:14;;;;;;;11.07;2.90;;;12.20;99.90;;;;;;4991583;28;20204;-87
2021/10/26 02:27:41;;;;;;;14.13;4.23;;;12.20;99.90;;;;;;4991889;28;20204;-86
2021/10/26 02:30:10;;;;;;;12.23;4.53;;;12.20;99.90;;;;;;4991659;28;20211;-87
2021/10/26 02:32:37;;;;;;;9.80;4.70;;;12.20;99.90;;;;;;5005657;28;20219;-88
2021/10/26 02:35:05;;;;;;;18.63;5.30;;;12.20;99.90;;;;;;5010795;28;20218;-85
2021/10/26 02:37:31;;;;;;;11.63;4.97;;;12.20;99.90;;;;;;5010812;28;20218;-87
2021/10/26 02:39:58;;;;;;;16.57;5.80;;;12.20;99.90;;;;;;5005404;28;20211;-87
2021/10/26 02:42:25;;;;;;;9.67;4.93;;;12.20;99.90;;;;;;4990577;28;20563;-86
2021/10/26 02:44:52;;;;;;;11.97;4.87;;;12.10;99.90;;;;;;4989496;28;20208;-86
2021/10/26 02:47:20;;;;;;;10.13;4.13;;;12.10;99.90;;;;;;4993625;28;20514;-87
2021/10/26 02:49:47;;;;;;;12.47;3.77;;;12.10;99.90;;;;;;4991514;28;20212;-86
2021/10/26 02:52:14;;;;;;;12.33;3.40;;;12.20;99.90;;;;;;5007837;28;20286;-86
2021/10/26 02:54:41;;;;;;;10.80;5.00;;;12.30;99.90;;;;;;5009086;28;20214;-87
2021/10/26 02:57:07;;;;;;;10.10;3.13;;;12.30;99.90;;;;;;4995001;28;20259;-87
2021/10/26 02:59:34;;;;;;;7.33;2.60;;;12.30;99.90;;;;;;4991607;28;20226;-87
2021/10/26 03:02:01;;;;;;;18.43;2.80;;;12.30;99.90;;;;;;5009684;28;20203;-86
2021/10/26 03:04:29;;;;;;;7.60;2.60;;;12.30;99.90;;;;;;5010262;28;20508;-88
2021/10/26 03:06:56;;;;;;;9.07;2.27;;;12.30;99.90;;;;;;4998431;28;20250;-87
2021/10/26 03:09:23;;;;;;;6.03;2.37;;;12.30;99.90;;;;;;4990503;28;20200;-86
2021/10/26 03:11:50;;;;;;;7.37;2.73;;;12.30;99.90;;;;;;4991211;28;20647;-85
2021/10/26 03:14:17;;;;;;;7.97;2.33;;;12.20;99.90;;;;;;4991170;28;20332;-87
2021/10/26 03:16:44;;;;;;;10.57;2.43;;;12.20;99.90;;;;;;4992000;28;20706;-86
2021/10/26 03:19:11;;;;;;;8.27;2.87;;;12.20;99.90;;;;;;4991627;28;20200;-85
2021/10/26 03:21:39;;;;;;;8.00;2.90;;;12.30;99.90;;;;;;5007699;28;20203;-84
2021/10/26 03:24:07;;;;;;;10.00;2.60;;;12.50;99.90;;;;;;5011796;28;20751;-85
2021/10/26 03:26:34;;;;;;;14.37;3.33;;;12.50;99.90;;;;;;5010416;28;20215;-87
2021/10/26 03:29:01;;;;;;;9.47;2.47;;;12.60;99.90;;;;;;5011675;28;20211;-87
2021/10/26 03:31:28;;;;;;;11.00;3.40;;;12.60;99.90;;;;;;5012088;28;20231;-84
2021/10/26 03:33:55;;;;;;;6.27;2.33;;;12.60;99.90;;;;;;5011725;28;20203;-87
2021/10/26 03:36:22;;;;;;;8.43;2.57;;;12.50;99.90;;;;;;4992400;28;20521;-86
2021/10/26 03:38:51;;;;;;;8.83;2.20;;;12.50;99.90;;;;;;4997148;28;20222;-87
2021/10/26 03:41:18;;;;;;;10.33;2.43;;;12.50;99.90;;;;;;5011291;28;20203;-86
2021/10/26 03:43:45;;;;;;;14.50;2.90;;;12.50;99.90;;;;;;5010677;28;20207;-84
2021/10/26 03:46:14;;;;;;;11.03;2.73;;;12.40;99.90;;;;;;4991545;28;20208;-88
2021/10/26 03:48:42;;;;;;;11.93;3.10;;;12.40;99.90;;;;;;4989366;28;20671;-88
2021/10/26 03:51:08;;;;;;;6.90;2.87;;;12.40;99.90;;;;;;4999942;28;20866;-87
2021/10/26 03:53:35;;;;;;;10.83;3.23;;;12.40;99.90;;;;;;4994724;28;20211;-87
2021/10/26 03:56:04;;;;;;;8.13;3.03;;;12.40;99.90;;;;;;4990155;28;20219;-88
2021/10/26 03:58:32;;;;;;;11.63;3.30;;;12.40;99.90;;;;;;4989466;28;20204;-86
2021/10/26 04:00:59;;;;;;;7.87;2.80;;;12.40;99.90;;;;;;4988401;28;20326;-86
2021/10/26 04:03:26;;;;;;;10.13;2.93;;;12.40;99.90;;;;;;4988208;28;20834;-85
2021/10/26 04:05:59;;;;;;;10.63;3.07;;;12.30;99.90;;;;;;4988624;28;20234;-86
2021/10/26 04:08:31;;;;;;;12.23;3.40;;;12.30;99.90;;;;;;4988349;28;20294;-88
2021/10/26 04:11:00;;;;;;;8.53;3.23;;;12.30;99.90;;;;;;4987814;28;20262;-87
2021/10/26 04:13:29;;;;;;;7.63;2.87;;;12.30;99.90;;;;;;4997776;28;20220;-85
2021/10/26 04:15:56;;;;;;;8.77;2.73;;;12.20;99.90;;;;;;5007772;28;20207;-86
2021/10/26 04:18:23;;;;;;;7.30;3.27;;;12.20;99.90;;;;;;4999921;28;20203;-87
2021/10/26 04:20:51;;;;;;;6.93;3.00;;;12.10;99.90;;;;;;4988834;28;20199;-85
2021/10/26 04:23:18;;;;;;;7.60;2.87;;;12.00;99.90;;;;;;4988466;28;20674;-88
2021/10/26 04:25:45;;;;;;;9.87;3.50;;;11.90;99.90;;;;;;4988014;28;20226;-86
2021/10/26 04:28:12;;;;;;;8.00;3.43;;;11.90;99.90;;;;;;4988772;28;20211;-88
2021/10/26 04:30:41;;;;;;;11.40;3.53;;;11.80;99.90;;;;;;4988425;28;20513;-88
2021/10/26 04:33:08;;;;;;;13.50;3.90;;;11.80;99.90;;;;;;4989249;28;20242;-85
2021/10/26 04:35:35;;;;;;;9.33;3.00;;;11.70;99.90;;;;;;4988936;28;20254;-85
2021/10/26 04:38:02;;;;;;;8.50;2.43;;;11.60;99.90;;;;;;4990157;28;20226;-85
2021/10/26 04:40:29;;;;;;;7.93;2.77;;;11.60;99.90;;;;;;4991093;28;20204;-87
2021/10/26 04:42:56;;;;;;;7.10;2.57;;;11.60;99.90;;;;;;4991540;28;20207;-85
2021/10/26 04:45:23;;;;;;;9.70;2.63;;;11.60;99.90;;;;;;4989892;28;20573;-86
2021/10/26 04:47:51;;;;;;;8.90;2.37;;;11.60;99.90;;;;;;4989752;28;20252;-84
2021/10/26 04:50:18;;;;;;;6.57;2.30;;;11.60;99.90;;;;;;4990014;28;20780;-84
2021/10/26 04:52:45;;;;;;;7.17;2.70;;;11.60;99.90;;;;;;4991105;28;20238;-85
2021/10/26 04:55:13;;;;;;;8.63;2.60;;;11.70;99.90;;;;;;4991718;28;20208;-85
2021/10/26 04:57:41;;;;;;;9.03;3.00;;;11.70;99.90;;;;;;4989323;28;20507;-87
2021/10/26 05:00:09;;;;;;;10.93;3.43;;;11.70;99.90;;;;;;4992629;28;20227;-85
2021/10/26 05:02:36;;;;;;;9.23;2.73;;;11.70;99.90;;;;;;5008749;28;20195;-87
2021/10/26 05:05:06;;;;;;;13.50;3.27;;;11.70;99.90;;;;;;5002580;28;20204;-87
2021/10/26 05:07:34;;;;;;;9.83;2.60;;;11.70;99.90;;;;;;4991101;28;20188;-86
2021/10/26 05:10:01;;;;;;;8.17;2.40;;;11.80;99.90;;;;;;4995005;28;20192;-85
2021/10/26 05:12:28;;;;;;;10.77;3.10;;;11.80;99.90;;;;;;4993280;28;20748;-85
2021/10/26 05:14:54;;;;;;;10.27;2.87;;;11.90;99.90;;;;;;5009001;28;20253;-85
2021/10/26 05:17:23;;;;;;;10.00;2.93;;;11.90;99.90;;;;;;5011865;28;20203;-84
2021/10/26 05:19:52;;;;;;;9.73;2.47;;;12.00;99.90;;;;;;4998487;28;20208;-86
2021/10/26 05:22:23;;;;;;;6.73;2.30;;;12.00;99.90;;;;;;4992958;28;20250;-86
2021/10/26 05:24:50;;;;;;;11.00;2.33;;;11.90;99.90;;;;;;5007998;28;20234;-86
2021/10/26 05:27:18;;;;;;;8.93;2.90;;;11.90;99.90;;;;;;5012590;28;20200;-85
2021/10/26 05:29:45;;;;;;;20.57;4.97;;;11.90;99.90;;;;;;4992897;28;20227;-86
2021/10/26 05:32:12;;;;;;;18.97;4.33;;;11.90;99.90;;;;;;4992498;28;20224;-85
2021/10/26 05:34:39;;;;;;;15.13;4.37;;;11.90;99.90;;;;;;4994235;28;20215;-87
2021/10/26 05:37:07;;;;;;;13.20;4.20;;;11.90;99.90;;;;;;4998756;28;20199;-85
2021/10/26 05:39:38;;;;;;;14.57;3.73;;;11.90;99.90;;;;;;5014964;28;20202;-86
2021/10/26 05:42:05;;;;;;;11.37;4.07;;;11.80;99.90;;;;;;5011187;28;20219;-86
2021/10/26 05:44:33;;;;;;;10.20;2.60;;;11.90;99.90;;;;;;4994375;28;20212;-86
2021/10/26 05:47:00;;;;;;;10.73;2.87;;;11.90;99.90;;;;;;4995443;28;20215;-87
2021/10/26 05:49:26;;;;;;;10.70;2.43;;;11.90;99.90;;;;;;4994665;28;20200;-86
2021/10/26 05:51:53;;;;;;;10.07;2.20;;;11.90;99.90;;;;;;4995206;28;20525;-83
2021/10/26 05:54:20;;;;;;;6.93;2.13;;;11.90;99.90;;;;;;5009476;28;20216;-86
2021/10/26 05:56:48;;;;;;;12.97;2.77;;;11.90;99.90;;;;;;5014872;28;20207;-83
2021/10/26 05:59:15;;;;;;;11.67;2.90;;;11.90;99.90;;;;;;5013438;28;20306;-85
2021/10/26 06:01:42;;;;;;;9.43;2.63;;;11.90;99.90;;;;;;5014775;28;20257;-86
2021/10/26 06:04:09;;;;;;;11.83;3.37;;;12.00;99.90;;;;;;5009594;28;20207;-85
2021/10/26 06:06:36;;;;;;;12.43;2.97;;;12.00;99.90;;;;;;4995253;28;20246;-85
2021/10/26 06:09:04;;;;;;;8.83;2.60;;;12.00;99.90;;;;;;4995521;28;20210;-85
2021/10/26 06:11:32;;;;;;;9.40;3.03;;;12.00;99.90;;;;;;4994991;28;20200;-87
2021/10/26 06:14:02;;;;;;;12.17;2.67;;;12.00;99.90;;;;;;4994498;28;20214;-86
2021/10/26 06:16:30;;;;;;;14.67;3.40;;;12.00;99.90;;;;;;5005386;28;20215;-85
2021/10/26 06:18:57;;;;;;;15.57;3.07;;;12.00;99.90;;;;;;5017071;28;20551;-85
2021/10/26 06:21:24;;;;;;;8.60;2.80;;;12.00;99.90;;;;;;5016342;28;20195;-86
2021/10/26 06:23:52;;;;;;;14.00;3.10;;;12.00;99.90;;;;;;5012849;28;20291;-87
2021/10/26 06:26:19;;;;;;;14.27;3.30;;;12.00;99.90;;;;;;4999680;28;20670;-84
2021/10/26 06:28:46;;;;;;;9.27;2.97;;;12.10;99.90;;;;;;4996240;28;20387;-86
2021/10/26 06:31:15;;;;;;;15.57;3.80;;;12.10;99.90;;;;;;4995255;28;20203;-86
2021/10/26 06:33:42;;;;;;;10.73;4.47;;;12.00;99.90;;;;;;5006944;28;20246;-84
2021/10/26 06:36:08;;;;;;;12.97;4.53;;;11.90;99.90;;;;;;5009022;28;20211;-85
2021/10/26 06:38:36;;;;;;;11.10;4.50;;;11.80;99.90;;;;;;4992476;28;20236;-86
2021/10/26 06:41:04;;;;;;;9.27;4.80;;;11.70;99.90;;;;;;4993753;28;20200;-86
2021/10/26 06:43:33;;;;;;;12.33;4.80;;;11.60;99.90;;;;;;4979416;28;20282;-85
2021/10/26 06:46:00;;;;;;;14.77;5.07;;;11.50;99.90;;;;;;5000757;28;20497;-81
2021/10/26 06:48:28;;;;;;;7.33;4.33;;;11.40;99.90;;;;;;5012455;28;20199;-87
2021/10/26 06:50:55;;;;;;;13.73;5.93;;;11.30;99.90;;;;;;5012623;28;20797;-85
2021/10/26 06:53:23;;;;;;;14.77;6.17;;;11.30;99.90;;;;;;5012384;28;20228;-86
2021/10/26 06:55:50;;;;;;;8.50;5.40;;;11.20;99.90;;;;;;5012982;28;20196;-86
2021/10/26 06:58:18;;;;;;;13.57;5.33;;;11.20;99.90;;;;;;5009979;28;20203;-86
2021/10/26 07:00:44;;;;;;;10.00;5.20;;;11.10;99.90;;;;;;5000270;28;20223;-89
2021/10/26 07:03:11;;;;;;;12.70;5.17;;;11.10;99.90;;;;;;4993726;28;20260;-86
2021/10/26 07:05:40;;;;;;;17.37;6.17;;;11.10;99.90;;;;;;5012045;28;20234;-90
2021/10/26 07:08:07;;;;;;;17.23;5.77;;;11.00;99.90;;;;;;5008389;28;20277;-88
2021/10/26 07:10:34;;;;;;;11.07;5.23;;;11.10;99.90;;;;;;4992795;28;20294;-89
2021/10/26 07:13:03;;;;;;;14.27;4.80;;;11.10;99.90;;;;;;4992705;28;20220;-84
2021/10/26 07:15:32;;;;;;;12.43;5.90;;;11.20;99.90;;;;;;4992760;28;20206;-88
2021/10/26 07:17:59;;;;;;;18.03;5.83;;;11.30;99.90;;;;;;4992380;28;20227;-88
2021/10/26 07:20:26;;;;;;;12.57;6.20;;;11.30;99.90;;;;;;4991009;28;20620;-89
2021/10/26 07:22:56;;;;;;;11.67;6.23;;;11.40;99.90;;;;;;4992758;28;20691;-89
2021/10/26 07:25:24;;;;;;;15.60;6.00;;;11.50;99.90;;;;;;4992517;28;20667;-87
2021/10/26 07:27:57;;;;;;;17.17;6.77;;;11.60;99.90;;;;;;5011180;28;20266;-86
2021/10/26 07:30:25;;;;;;;14.87;6.43;;;11.70;99.90;;;;;;5009196;28;20192;-86
2021/10/26 07:32:52;;;;;;;16.00;6.67;;;11.70;99.90;;;;;;5010269;28;20227;-84
2021/10/26 07:35:19;;;;;;;13.00;5.57;;;11.80;99.90;;;;;;5011318;28;20207;-88
2021/10/26 07:37:47;;;;;;;12.93;6.10;;;11.70;99.90;;;;;;5012246;28;20196;-86
2021/10/26 07:40:17;;;;;;;18.00;6.73;;;11.80;99.90;;;;;;5012408;28;20286;-88
2021/10/26 07:42:44;;;;;;;15.00;6.30;;;11.90;99.90;;;;;;5012338;28;20203;-87
2021/10/26 07:45:11;;;;;;;12.73;6.23;;;11.90;99.90;;;;;;5012129;28;20222;-86
2021/10/26 07:47:38;;;;;;;18.40;7.07;;;12.00;99.90;;;;;;5016998;28;20220;-85
2021/10/26 07:50:08;;;;;;;15.87;5.73;;;12.00;99.90;;;;;;5016842;28;20218;-86
2021/10/26 07:52:35;;;;;;;8.23;5.40;;;12.00;99.90;;;;;;5016434;28;20761;-86
2021/10/26 07:55:02;;;;;;;17.70;6.20;;;12.00;99.90;;;;;;5021867;28;20214;-89
2021/10/26 07:57:33;;;;;;;14.13;5.90;;;12.00;99.90;;;;;;5017154;28;20377;-86
2021/10/26 08:00:00;;;;;;;12.90;5.47;;;12.10;99.90;;;;;;5022414;28;20777;-85
2021/10/26 08:02:27;;;;;;;17.97;5.93;;;12.10;99.90;;;;;;5011685;28;20212;-86
2021/10/26 08:04:55;;;;;;;14.90;5.93;;;12.10;99.90;;;;;;5024630;28;20210;-89
2021/10/26 08:07:23;;;;;;;10.77;5.30;;;12.10;99.90;;;;;;5010725;28;20231;-85
2021/10/26 08:09:51;;;;;;;13.80;5.87;;;12.10;99.90;;;;;;5029224;28;20210;-89
2021/10/26 08:12:19;;;;;;;9.70;4.80;;;12.10;99.90;;;;;;5019720;28;20230;-85
2021/10/26 08:14:47;;;;;;;10.70;5.40;;;12.10;99.90;;;;;;5018810;28;20218;-90
2021/10/26 08:17:16;;;;;;;11.90;4.43;;;12.20;99.90;;;;;;5012277;28;20195;-86
2021/10/26 08:19:51;;;;;;;12.77;4.83;;;12.20;99.90;;;;;;5011211;28;20231;-85
2021/10/26 08:22:23;;;;;;;9.90;4.33;;;12.20;99.90;;;;;;5011878;28;20198;-85
2021/10/26 08:24:56;;;;;;;17.10;4.57;;;12.20;99.90;;;;;;5011128;28;20638;-84
2021/10/26 08:27:23;;;;;;;9.47;4.13;;;12.20;99.90;;;;;;5010257;28;20199;-86
2021/10/26 08:29:57;;;;;;;9.27;4.20;;;12.30;99.90;;;;;;5011132;28;20214;-87
2021/10/26 08:37:59;;;;;;;14.23;5.00;;;12.50;99.90;;;;;;5002707;28;20258;-89
2021/10/26 08:40:27;;;;;;;10.30;3.93;;;12.50;99.90;;;;;;4991576;28;20196;-84
2021/10/26 08:42:57;;;;;;;8.83;4.10;;;12.60;99.90;;;;;;4993299;28;20200;-83
2021/10/26 08:45:27;;;;;;;9.40;4.17;;;12.60;99.90;;;;;;4995585;28;20239;-86
2021/10/26 08:47:54;;;;;;;14.43;5.10;;;12.70;99.90;;;;;;4995834;28;20211;-84
2021/10/26 08:50:21;;;;;;;15.13;5.20;;;12.80;99.90;;;;;;4997230;28;20196;-83
2021/10/26 08:52:49;;;;;;;11.33;4.50;;;12.80;99.90;;;;;;5018749;28;20238;-82
2021/10/26 08:55:18;;;;;;;13.03;4.97;;;12.90;99.90;;;;;;5024479;28;20207;-85
2021/10/26 08:57:46;;;;;;;14.63;5.87;;;13.00;99.90;;;;;;5025989;28;20203;-85
2021/10/26 09:00:16;;;;;;;12.97;5.10;;;13.10;99.90;;;;;;5015725;28;20230;-84
2021/10/26 09:02:47;;;;;;;13.03;5.30;;;13.20;99.90;;;;;;5025321;28;20207;-84
2021/10/26 09:05:16;;;;;;;11.10;5.27;;;13.20;99.90;;;;;;5025532;28;20207;-84
2021/10/26 09:07:59;;;;;;;13.07;5.20;;;13.20;99.90;;;;;;5020340;28;20220;-85
2021/10/26 09:10:29;;;;;;;12.03;5.80;;;13.30;99.90;;;;;;5020912;28;20218;-83
2021/10/26 09:18:38;;;;;;;11.67;4.87;;;13.40;99.90;;;;;;5025721;28;20186;-83
2021/10/26 09:21:05;;;;;;;13.83;4.53;;;13.40;99.90;;;;;;5015934;28;20226;-84
2021/10/26 09:23:34;;;;;;;15.37;5.53;;;13.50;99.90;;;;;;5020403;28;20203;-82
2021/10/26 09:26:01;;;;;;;9.10;4.07;;;13.50;99.90;;;;;;5020062;28;20218;-84
2021/10/26 09:28:30;;;;;;;8.00;3.97;;;13.50;99.90;;;;;;5020569;28;20198;-84
2021/10/26 09:31:01;;;;;;;10.20;4.13;;;13.60;99.90;;;;;;5029162;28;20203;-83
2021/10/26 09:33:30;;;;;;;11.27;4.53;;;13.60;99.90;;;;;;5020644;28;20231;-84
2021/10/26 09:36:21;;;;;;;12.00;4.47;;;13.70;99.90;;;;;;5021160;28;20199;-84
2021/10/26 09:38:55;;;;;;;13.50;4.40;;;13.70;99.90;;;;;;5013478;28;20397;-83
2021/10/26 09:41:21;;;;;;;14.27;4.83;;;13.70;99.90;;;;;;5018639;28;20192;-86
2021/10/26 09:43:48;;;;;;;9.67;3.67;;;13.70;99.90;;;;;;5016553;28;20222;-83
2021/10/26 09:46:16;;;;;;;11.63;4.10;;;13.70;99.90;;;;;;5018804;28;20222;-82
2021/10/26 09:48:44;;;;;;;10.13;3.57;;;13.70;99.90;;;;;;5010190;28;20209;-84
2021/10/26 09:51:21;;;;;;;15.73;4.33;;;13.60;99.90;;;;;;5024050;28;20582;-82
2021/10/26 09:53:56;;;;;;;10.00;3.27;;;13.60;99.90;;;;;;5018439;28;20348;-84
2021/10/26 09:56:22;;;;;;;9.57;3.37;;;13.60;99.90;;;;;;5015655;28;20355;-84
2021/10/26 09:58:49;;;;;;;10.00;3.33;;;13.60;99.90;;;;;;5020969;28;20213;-83
2021/10/26 10:01:26;;;;;;;16.83;3.83;;;13.60;99.90;;;;;;5021143;28;20209;-83
2021/10/26 10:04:03;;;;;;;8.20;2.97;;;13.60;99.90;;;;;;5006840;28;20940;-82
2021/10/26 10:06:50;;;;;;;9.40;3.53;;;13.70;99.90;;;;;;4998757;28;20277;-84
2021/10/26 10:09:21;;;;;;;13.13;3.67;;;13.80;99.90;;;;;;5013158;28;20211;-85
2021/10/26 10:12:08;;;;;;;12.53;3.40;;;13.80;99.90;;;;;;5017306;28;20610;-85
2021/10/26 10:14:37;;;;;;;10.20;3.30;;;13.90;99.90;;;;;;5028215;22;20989;-84
2021/10/26 10:17:08;;;;;;;13.20;3.67;;;14.10;99.90;;;;;;5010426;28;20229;-83
2021/10/26 10:19:36;;;;;;;10.40;3.20;;;14.20;99.90;;;;;;5028406;28;20198;-84
2021/10/26 10:22:06;;;;;;;9.93;3.73;;;14.20;99.90;;;;;;5026931;28;20218;-83
2021/10/26 10:24:39;;;;;;;14.83;3.53;;;14.30;99.90;;;;;;5027084;28;20218;-82
2021/10/26 10:27:07;;;;;;;9.73;3.30;;;14.30;99.90;;;;;;5016832;28;20199;-81
2021/10/26 10:29:35;;;;;;;13.38;3.55;;;14.30;99.90;;;;;;5029837;28;20493;-82
2021/10/26 10:32:02;;;;;;;5.73;3.03;;;14.30;99.90;;;;;;5030271;28;20214;-82
2021/10/26 10:34:30;;;;;;;9.23;3.70;;;14.30;99.90;;;;;;5026219;28;20311;-83
2021/10/26 10:37:00;;;;;;;9.60;3.93;;;14.30;99.90;;;;;;5025804;28;20225;-83
2021/10/26 10:39:34;;;;;;;14.80;5.17;;;14.20;99.90;;;;;;5030245;28;20218;-81
2021/10/26 10:42:12;;;;;;;13.03;4.90;;;14.20;99.90;;;;;;5017189;28;20223;-82
2021/10/26 10:44:40;;;;;;;9.80;3.90;;;14.10;99.90;;;;;;5028943;28;20234;-83
2021/10/26 10:47:11;;;;;;;10.77;3.70;;;14.10;99.90;;;;;;5029984;28;20210;-82
2021/10/26 10:49:49;;;;;;;8.60;3.33;;;14.10;99.90;;;;;;5000792;28;20294;-82
2021/10/26 10:52:28;;;;;;;9.47;3.30;;;14.10;99.90;;;;;;5026760;28;20199;-81
2021/10/26 10:54:57;;;;;;;8.00;3.03;;;14.00;99.90;;;;;;5028445;28;20233;-83
2021/10/26 10:57:30;;;;;;;11.20;3.47;;;14.00;99.90;;;;;;5022996;28;20329;-82
2021/10/26 10:59:59;;;;;;;6.50;3.10;;;14.00;99.90;;;;;;5021600;28;20333;-82
2021/10/26 11:02:27;;;;;;;6.83;3.23;;;14.00;99.90;;;;;;5021495;28;20202;-83
2021/10/26 11:04:55;;;;;;;5.47;3.63;;;13.90;99.90;;;;;;5027569;28;20214;-81
2021/10/26 11:07:54;;;;;;;6.37;3.63;;;14.00;99.90;;;;;;5024157;28;20374;-83
2021/10/26 11:10:22;;;;;;;10.70;5.53;;;14.00;99.90;;;;;;5021814;28;20194;-83
2021/10/26 11:12:51;;;;;;;10.57;6.20;;;13.90;99.90;;;;;;5027535;28;20207;-81
2021/10/26 11:15:25;;;;;;;11.20;5.53;;;13.90;99.90;;;;;;5014686;28;20633;-80
2021/10/26 11:17:57;;;;;;;11.67;6.00;;;13.90;99.90;;;;;;5022904;28;20934;-80
2021/10/26 11:20:43;;;;;;;10.00;5.70;;;13.90;99.90;;;;;;5027143;28;20211;-83
2021/10/26 11:23:14;;;;;;;13.37;4.87;;;13.90;99.90;;;;;;5027312;28;20206;-79
2021/10/26 11:25:45;;;;;;;12.67;5.43;;;13.90;99.90;;;;;;5014374;28;20198;-79
2021/10/26 11:28:34;;;;;;;11.50;5.03;;;13.80;99.90;;;;;;5022213;28;20222;-84
2021/10/26 11:31:05;;;;;;;12.10;4.37;;;13.90;99.90;;;;;;5026111;28;20210;-81
2021/10/26 11:33:35;;;;;;;13.57;4.80;;;13.90;99.90;;;;;;5025694;28;20305;-79
2021/10/26 11:36:05;;;;;;;9.37;4.30;;;13.90;99.90;;;;;;5032181;28;20640;-81
2021/10/26 11:38:34;;;;;;;12.00;3.97;;;14.00;99.90;;;;;;5026521;28;20238;-84
2021/10/26 11:41:04;;;;;;;11.07;4.47;;;13.90;99.90;;;;;;5029542;28;20499;-84
2021/10/26 11:43:38;;;;;;;10.80;3.93;;;14.00;99.90;;;;;;5029578;28;20217;-84
2021/10/26 11:46:05;;;;;;;8.27;3.60;;;14.00;99.90;;;;;;5024548;28;20564;-81
2021/10/26 11:48:55;;;;;;;11.97;4.13;;;13.90;99.90;;;;;;5026289;28;20313;-80
2021/10/26 11:51:24;;;;;;;11.07;3.47;;;13.90;99.90;;;;;;5022206;28;20308;-83
2021/10/26 11:53:52;;;;;;;15.03;4.17;;;14.00;99.90;;;;;;5022544;28;20234;-84
2021/10/26 11:56:26;;;;;;;12.73;4.30;;;14.10;99.90;;;;;;5023175;28;20205;-81
2021/10/26 11:58:59;;;;;;;13.97;4.47;;;14.10;99.90;;;;;;5016318;28;20214;-82
2021/10/26 12:01:54;;;;;;;12.03;4.00;;;14.20;99.90;;;;;;5021446;28;20214;-81
2021/10/26 12:04:25;;;;;;;18.70;4.60;;;14.30;99.90;;;;;;5025230;28;20509;-83
2021/10/26 12:06:56;;;;;;;13.10;4.50;;;14.30;99.90;;;;;;5026513;28;20881;-81
2021/10/26 12:09:23;;;;;;;17.07;5.93;;;14.30;99.90;;;;;;5026826;28;20539;-83
2021/10/26 12:11:53;;;;;;;16.03;4.97;;;14.30;99.90;;;;;;5025117;28;20210;-84
2021/10/26 12:14:23;;;;;;;12.17;5.47;;;14.30;99.90;;;;;;5024622;28;20230;-82
2021/10/26 12:17:10;;;;;;;13.23;4.97;;;14.30;99.90;;;;;;5024081;28;20658;-83
2021/10/26 12:19:40;;;;;;;17.47;6.03;;;14.40;99.90;;;;;;5017267;28;20514;-81
2021/10/26 12:22:11;;;;;;;17.40;5.77;;;14.40;99.90;;;;;;5024542;28;20207;-81
2021/10/26 12:24:44;;;;;;;22.27;6.47;;;14.40;99.90;;;;;;5021803;28;20207;-82
2021/10/26 12:27:12;;;;;;;32.07;7.57;;;14.40;99.90;;;;;;5021101;28;20229;-81
2021/10/26 12:29:42;;;;;;;16.03;7.20;;;14.50;99.90;;;;;;5025409;28;20218;-82
2021/10/26 12:32:09;;;;;;;22.13;7.23;;;14.50;99.90;;;;;;5015406;28;20280;-80
2021/10/26 12:34:42;;;;;;;17.63;6.80;;;14.60;99.90;;;;;;5025721;28;20957;-80
2021/10/26 12:37:31;;;;;;;12.90;6.10;;;14.60;99.90;;;;;;5017554;28;20237;-82
2021/10/26 12:39:59;;;;;;;22.80;7.53;;;14.70;99.90;;;;;;5013690;28;20218;-82
2021/10/26 12:42:38;;;;;;;17.17;6.57;;;14.60;99.90;;;;;;5025109;28;20221;-81
2021/10/26 12:45:08;;;;;;;14.50;6.90;;;14.70;99.90;;;;;;5016060;28;20198;-82
2021/10/26 12:47:52;;;;;;;20.67;6.10;;;14.60;99.90;;;;;;5026536;28;20568;-84
2021/10/26 12:50:27;;;;;;;23.17;6.17;;;14.70;99.90;;;;;;5022498;28;20202;-82
2021/10/26 12:53:32;;;;;;;15.27;5.43;;;14.70;99.90;;;;;;5022536;28;20210;-82
2021/10/26 12:55:59;;;;;;;17.70;5.27;;;14.80;99.90;;;;;;5018006;28;20208;-81
2021/10/26 12:58:43;;;;;;;16.83;5.23;;;14.80;99.90;;;;;;5025018;28;20956;-81
2021/10/26 13:01:26;;;;;;;22.60;4.47;;;14.80;99.90;;;;;;5025965;28;20221;-83